sensor_id;sensor_type;location;lat;lon;timestamp;temperature;humidity
45313;SHT31;68267;51.540;5.854;2023-07-29T06:40:45;18.1;82.1
45313;SHT31;68267;51.540;5.854;2023-07-29T06:54:05;18.4;82.2
45313;SHT31;68267;51.540;5.854;2023-07-29T07:07:24;18.6;81.5
45313;SHT31;68267;51.540;5.854;2023-07-29T07:20:44;19.0;81.1
45313;SHT31;68267;51.540;5.854;2023-07-29T07:34:03;19.8;79.2
45313;SHT31;68267;51.540;5.854;2023-07-29T07:47:23;19.5;77.5
45313;SHT31;68267;51.540;5.854;2023-07-29T08:00:43;19.4;79.0
45313;SHT31;68267;51.540;5.854;2023-07-29T08:14:02;19.9;78.5
45313;SHT31;68267;51.540;5.854;2023-07-29T08:27:22;19.7;76.9
45313;SHT31;68267;51.540;5.854;2023-07-29T08:40:41;20.3;75.9
45313;SHT31;68267;51.540;5.854;2023-07-29T08:54:01;20.3;73.5
45313;SHT31;68267;51.540;5.854;2023-07-29T09:07:21;20.3;74.5
45313;SHT31;68267;51.540;5.854;2023-07-29T09:20:40;21.0;74.1
45313;SHT31;68267;51.540;5.854;2023-07-29T09:34:00;22.0;71.9
45313;SHT31;68267;51.540;5.854;2023-07-29T09:47:19;21.8;69.3
45313;SHT31;68267;51.540;5.854;2023-07-29T10:00:39;21.8;70.4
45313;SHT31;68267;51.540;5.854;2023-07-29T10:13:59;21.7;69.5
45313;SHT31;68267;51.540;5.854;2023-07-29T10:27:18;21.9;70.8
45313;SHT31;68267;51.540;5.854;2023-07-29T10:40:38;22.3;68.4
45313;SHT31;68267;51.540;5.854;2023-07-29T10:53:58;22.1;66.4
45313;SHT31;68267;51.540;5.854;2023-07-29T11:07:17;22.6;67.2
45313;SHT31;68267;51.540;5.854;2023-07-29T11:20:37;22.4;67.0
45313;SHT31;68267;51.540;5.854;2023-07-29T11:33:56;22.1;67.3
45313;SHT31;68267;51.540;5.854;2023-07-29T11:47:16;22.2;68.4
45313;SHT31;68267;51.540;5.854;2023-07-29T12:00:36;22.3;67.4
45313;SHT31;68267;51.540;5.854;2023-07-29T12:13:55;21.0;74.4
45313;SHT31;68267;51.540;5.854;2023-07-29T12:27:15;20.7;76.1
45313;SHT31;68267;51.540;5.854;2023-07-29T12:40:35;20.5;77.3
45313;SHT31;68267;51.540;5.854;2023-07-29T12:53:54;20.0;81.4
45313;SHT31;68267;51.540;5.854;2023-07-29T13:07:14;18.6;84.9
45313;SHT31;68267;51.540;5.854;2023-07-29T13:20:34;17.5;86.4
45313;SHT31;68267;51.540;5.854;2023-07-29T13:33:53;18.2;87.9
45313;SHT31;68267;51.540;5.854;2023-07-29T13:47:13;19.8;85.7
45313;SHT31;68267;51.540;5.854;2023-07-29T14:00:32;21.4;80.7
45313;SHT31;68267;51.540;5.854;2023-07-29T14:13:52;22.0;77.9
45313;SHT31;68267;51.540;5.854;2023-07-29T14:27:12;22.6;75.3
45313;SHT31;68267;51.540;5.854;2023-07-29T14:40:31;22.8;74.4
45313;SHT31;68267;51.540;5.854;2023-07-29T14:53:51;23.0;72.5
45313;SHT31;68267;51.540;5.854;2023-07-29T15:07:10;22.5;74.7
45313;SHT31;68267;51.540;5.854;2023-07-29T15:20:30;22.4;74.9
45313;SHT31;68267;51.540;5.854;2023-07-29T15:33:50;22.4;73.8
45313;SHT31;68267;51.540;5.854;2023-07-29T15:47:09;22.5;73.8
45313;SHT31;68267;51.540;5.854;2023-07-29T16:00:29;23.6;70.6
45313;SHT31;68267;51.540;5.854;2023-07-29T16:13:49;22.6;71.9
45313;SHT31;68267;51.540;5.854;2023-07-29T16:27:08;21.9;74.0
45313;SHT31;68267;51.540;5.854;2023-07-29T16:40:28;21.8;75.9
45313;SHT31;68267;51.540;5.854;2023-07-29T16:53:48;21.4;77.4
45313;SHT31;68267;51.540;5.854;2023-07-29T17:07:07;21.4;77.6
45313;SHT31;68267;51.540;5.854;2023-07-29T17:20:27;21.2;77.3
45313;SHT31;68267;51.540;5.854;2023-07-29T17:33:46;21.2;79.7
45313;SHT31;68267;51.540;5.854;2023-07-29T17:47:06;21.5;80.2
45313;SHT31;68267;51.540;5.854;2023-07-29T18:00:26;22.0;78.5
45313;SHT31;68267;51.540;5.854;2023-07-29T18:13:45;23.0;76.8
45313;SHT31;68267;51.540;5.854;2023-07-29T18:27:05;23.5;73.3
45313;SHT31;68267;51.540;5.854;2023-07-29T18:40:25;23.6;72.7
45313;SHT31;68267;51.540;5.854;2023-07-29T18:53:44;21.7;75.7
45313;SHT31;68267;51.540;5.854;2023-07-29T19:07:04;20.8;78.2
45313;SHT31;68267;51.540;5.854;2023-07-29T19:20:23;20.3;80.1
45313;SHT31;68267;51.540;5.854;2023-07-29T19:33:43;20.0;81.8
45313;SHT31;68267;51.540;5.854;2023-07-29T19:47:03;19.7;82.6
45313;SHT31;68267;51.540;5.854;2023-07-29T20:00:23;19.4;83.1
45313;SHT31;68267;51.540;5.854;2023-07-29T20:27:02;18.8;81.4
45313;SHT31;68267;51.540;5.854;2023-07-29T20:40:21;18.5;81.0
45313;SHT31;68267;51.540;5.854;2023-07-29T20:53:41;18.3;81.4
45313;SHT31;68267;51.540;5.854;2023-07-29T21:07:01;18.1;79.8
45313;SHT31;68267;51.540;5.854;2023-07-29T21:20:20;17.9;77.9
45313;SHT31;68267;51.540;5.854;2023-07-29T21:33:40;17.8;76.7
45313;SHT31;68267;51.540;5.854;2023-07-29T21:47:00;17.5;76.5
45313;SHT31;68267;51.540;5.854;2023-07-29T22:00:19;17.4;77.1
45313;SHT31;68267;51.540;5.854;2023-07-29T22:13:39;17.3;77.7
45313;SHT31;68267;51.540;5.854;2023-07-29T22:26:58;17.1;78.9
45313;SHT31;68267;51.540;5.854;2023-07-29T22:40:18;16.7;79.6
45313;SHT31;68267;51.540;5.854;2023-07-29T22:53:38;16.4;80.0
45313;SHT31;68267;51.540;5.854;2023-07-29T23:06:57;16.2;79.9
45313;SHT31;68267;51.540;5.854;2023-07-29T23:20:17;16.0;80.2
45313;SHT31;68267;51.540;5.854;2023-07-29T23:33:37;15.8;80.6
45313;SHT31;68267;51.540;5.854;2023-07-29T23:46:56;15.7;80.8
